Time;durP1;ratioP1;P1;durP2;ratioP2;P2;SDS_P1;SDS_P2;PMS_P1;PMS_P2;Temp;Humidity;BMP_temperature;BMP_pressure;BME280_temperature;BME280_humidity;BME280_pressure;Samples;Min_cycle;Max_cycle;Signal;HPM_P1;HPM_P2
2022/06/15 00:01:17;;;;;;;6.20;2.00;;;14.30;99.90;;;;;;5039389;28;20318;-46
2022/06/15 00:03:43;;;;;;;5.17;2.00;;;14.30;99.90;;;;;;5018463;28;20567;-41
2022/06/15 00:06:21;;;;;;;3.67;1.50;;;14.20;99.90;;;;;;5033378;28;20196;-41
2022/06/15 00:08:52;;;;;;;4.47;1.70;;;14.20;99.90;;;;;;5015737;28;20433;-39
2022/06/15 00:11:22;;;;;;;3.30;1.60;;;14.20;99.90;;;;;;5015630;28;20180;-39
2022/06/15 00:13:48;;;;;;;2.97;1.80;;;14.10;99.90;;;;;;5033315;28;20259;-40
2022/06/15 00:16:15;;;;;;;4.67;1.70;;;14.10;99.90;;;;;;5019362;28;20215;-44
2022/06/15 00:18:44;;;;;;;2.93;2.00;;;14.00;99.90;;;;;;5038550;28;20266;-46
2022/06/15 00:21:10;;;;;;;3.70;1.87;;;14.00;99.90;;;;;;5037416;28;20196;-45
2022/06/15 00:23:36;;;;;;;3.70;1.90;;;13.90;99.90;;;;;;5037803;28;20173;-47
2022/06/15 00:26:04;;;;;;;6.23;1.70;;;13.90;99.90;;;;;;5019013;28;20173;-46
2022/06/15 00:28:30;;;;;;;3.60;1.57;;;13.80;99.90;;;;;;5036806;28;20272;-46
2022/06/15 00:30:56;;;;;;;3.33;1.60;;;13.80;99.90;;;;;;5037191;28;20185;-45
2022/06/15 00:33:22;;;;;;;3.07;1.80;;;13.60;99.90;;;;;;5019094;28;20667;-45
2022/06/15 00:35:57;;;;;;;3.47;1.70;;;13.60;99.90;;;;;;5036979;28;20607;-45
2022/06/15 00:38:26;;;;;;;4.07;1.80;;;13.60;99.90;;;;;;5019884;28;20606;-46
2022/06/15 00:40:52;;;;;;;2.60;1.60;;;13.50;99.90;;;;;;5040585;28;20176;-45
2022/06/15 00:43:37;;;;;;;2.77;1.63;;;13.40;99.90;;;;;;5022734;28;20644;-45
2022/06/15 00:46:21;;;;;;;3.80;1.80;;;13.30;99.90;;;;;;5040838;28;20180;-46
2022/06/15 00:48:52;;;;;;;3.63;1.60;;;13.30;99.90;;;;;;5041368;28;20613;-44
2022/06/15 00:51:18;;;;;;;3.70;1.80;;;13.30;99.90;;;;;;5036993;28;20276;-39
2022/06/15 00:53:44;;;;;;;2.70;1.70;;;13.20;99.90;;;;;;5019277;28;20275;-40
2022/06/15 00:56:10;;;;;;;3.47;1.57;;;13.20;99.90;;;;;;5019144;28;20180;-40
2022/06/15 00:58:39;;;;;;;3.97;1.57;;;13.10;99.90;;;;;;5036603;28;20299;-39
2022/06/15 01:01:06;;;;;;;3.60;1.63;;;13.10;99.90;;;;;;5019262;28;20272;-41
2022/06/15 01:03:33;;;;;;;3.17;1.80;;;13.00;99.90;;;;;;5019550;28;20200;-40
2022/06/15 01:06:07;;;;;;;2.37;1.70;;;12.90;99.90;;;;;;5019185;28;20200;-39
2022/06/15 01:08:49;;;;;;;2.83;1.40;;;12.90;99.90;;;;;;5036847;28;20270;-40
2022/06/15 01:11:32;;;;;;;4.37;1.50;;;12.80;99.90;;;;;;5019008;28;20181;-39
2022/06/15 01:14:16;;;;;;;3.43;1.47;;;12.80;99.90;;;;;;5018986;28;20211;-37
2022/06/15 01:16:54;;;;;;;2.40;1.60;;;12.80;99.90;;;;;;5036679;28;20230;-40
2022/06/15 01:19:48;;;;;;;3.87;2.00;;;12.60;99.90;;;;;;5036638;28;20215;-42
2022/06/15 01:22:38;;;;;;;1.70;1.53;;;12.60;99.90;;;;;;5019665;28;20180;-42
2022/06/15 01:25:10;;;;;;;3.20;1.73;;;12.50;99.90;;;;;;5038269;28;20161;-41
2022/06/15 01:27:41;;;;;;;5.20;1.97;;;12.50;99.90;;;;;;5038586;28;20169;-40
2022/06/15 01:30:18;;;;;;;5.93;1.90;;;12.40;99.90;;;;;;5020706;28;20201;-40
2022/06/15 01:33:12;;;;;;;6.77;2.30;;;12.40;99.90;;;;;;5039130;28;20172;-41
2022/06/15 01:35:59;;;;;;;6.07;1.97;;;12.40;99.90;;;;;;5043278;28;20181;-39
2022/06/15 01:38:38;;;;;;;4.80;2.07;;;12.40;99.90;;;;;;5018364;28;20216;-41
2022/06/15 01:41:19;;;;;;;4.50;2.33;;;12.40;99.90;;;;;;5036301;28;20197;-41
2022/06/15 01:44:02;;;;;;;3.43;2.00;;;12.50;99.90;;;;;;5036147;28;20193;-40
2022/06/15 01:46:28;;;;;;;4.30;1.93;;;12.50;99.90;;;;;;5036272;28;20165;-39
2022/06/15 01:48:56;;;;;;;5.03;2.40;;;12.50;99.90;;;;;;5035876;28;20209;-39
2022/06/15 01:51:31;;;;;;;4.30;2.13;;;12.50;99.90;;;;;;5035616;28;20193;-43
2022/06/15 01:54:05;;;;;;;4.03;2.30;;;12.60;99.90;;;;;;5035850;28;20168;-41
2022/06/15 01:56:35;;;;;;;4.93;2.43;;;12.60;99.90;;;;;;5035984;28;20255;-39
2022/06/15 01:59:21;;;;;;;5.47;2.30;;;12.60;99.90;;;;;;5035637;28;20221;-42
2022/06/15 02:02:20;;;;;;;7.13;2.73;;;12.60;99.90;;;;;;5017878;28;20177;-39
2022/06/15 02:05:04;;;;;;;7.97;2.10;;;12.60;99.90;;;;;;5018161;28;20173;-41
2022/06/15 02:08:37;;;;;;;5.87;2.40;;;12.60;99.90;;;;;;5035671;28;20162;-40
2022/06/15 02:11:12;;;;;;;6.43;2.67;;;12.50;99.90;;;;;;4956070;29;20636;-40
2022/06/15 02:13:49;;;;;;;9.47;2.57;;;12.50;99.90;;;;;;4955505;29;20179;-39
2022/06/15 02:16:40;;;;;;;3.33;2.03;;;12.50;99.90;;;;;;4986934;28;20196;-46
2022/06/15 02:19:10;;;;;;;4.40;2.37;;;12.50;99.90;;;;;;5024739;28;20209;-45
2022/06/15 02:21:39;;;;;;;5.03;2.43;;;12.50;99.90;;;;;;5007117;28;20183;-45
2022/06/15 02:24:06;;;;;;;3.27;1.93;;;12.40;99.90;;;;;;5022454;28;20183;-45
2022/06/15 02:26:35;;;;;;;6.83;2.87;;;12.40;99.90;;;;;;5040735;28;20276;-45
2022/06/15 02:29:05;;;;;;;3.83;2.50;;;12.30;99.90;;;;;;5040445;28;20203;-44
2022/06/15 02:31:31;;;;;;;5.43;2.70;;;12.30;99.90;;;;;;5040192;28;20169;-46
2022/06/15 02:33:59;;;;;;;5.30;2.80;;;12.30;99.90;;;;;;5023024;28;20211;-47
2022/06/15 02:36:25;;;;;;;4.47;2.77;;;12.20;99.90;;;;;;5040015;28;20177;-46
2022/06/15 02:38:51;;;;;;;6.17;2.43;;;12.20;99.90;;;;;;5022665;28;20209;-45
2022/06/15 02:41:20;;;;;;;6.83;2.60;;;12.20;99.90;;;;;;5040897;28;20272;-45
2022/06/15 02:43:52;;;;;;;8.30;2.63;;;12.20;99.90;;;;;;5022279;28;20181;-46
2022/06/15 02:46:18;;;;;;;5.20;2.80;;;12.20;99.90;;;;;;5040394;28;20193;-45
2022/06/15 02:48:45;;;;;;;5.20;2.80;;;12.10;99.90;;;;;;5040092;28;20299;-45
2022/06/15 02:51:38;;;;;;;4.90;2.77;;;12.10;99.90;;;;;;5038629;28;20197;-46
2022/06/15 02:54:29;;;;;;;3.17;2.40;;;12.10;99.90;;;;;;5039433;28;20541;-47
2022/06/15 02:56:54;;;;;;;5.47;2.67;;;12.10;99.90;;;;;;5038957;28;20208;-45
2022/06/15 02:59:20;;;;;;;6.03;3.20;;;12.10;99.90;;;;;;5039257;28;20196;-43
2022/06/15 03:01:46;;;;;;;6.10;2.70;;;12.10;99.90;;;;;;5039160;28;20173;-45
2022/06/15 03:04:12;;;;;;;6.07;2.87;;;12.00;99.90;;;;;;5019679;28;20264;-43
2022/06/15 03:06:38;;;;;;;5.97;2.23;;;12.00;99.90;;;;;;5034697;28;20246;-43
2022/06/15 03:09:04;;;;;;;9.00;3.43;;;12.00;99.90;;;;;;5034608;28;20201;-43
2022/06/15 03:11:29;;;;;;;4.20;2.37;;;12.00;99.90;;;;;;5034680;28;20177;-43
2022/06/15 03:13:55;;;;;;;8.30;2.97;;;12.00;99.90;;;;;;5016824;28;20172;-44
2022/06/15 03:16:21;;;;;;;7.87;2.80;;;11.90;99.90;;;;;;5038151;28;20192;-43
2022/06/15 03:18:46;;;;;;;5.17;2.30;;;12.00;99.90;;;;;;5034471;28;20216;-44
2022/06/15 03:21:12;;;;;;;7.57;2.90;;;11.90;99.90;;;;;;5034532;28;20185;-47
2022/06/15 03:23:38;;;;;;;3.57;2.50;;;11.90;99.90;;;;;;5034511;28;20184;-42
2022/06/15 03:26:05;;;;;;;4.63;2.70;;;11.90;99.90;;;;;;5034287;28;20526;-44
2022/06/15 03:28:30;;;;;;;8.83;2.80;;;11.90;99.90;;;;;;5016403;28;20196;-43
2022/06/15 03:30:57;;;;;;;4.83;2.70;;;11.90;99.90;;;;;;5034315;28;20187;-42
2022/06/15 03:33:22;;;;;;;5.23;2.77;;;11.90;99.90;;;;;;5034280;28;20188;-43
2022/06/15 03:35:48;;;;;;;10.57;3.03;;;11.90;99.90;;;;;;5034107;28;20594;-43
2022/06/15 03:38:15;;;;;;;5.77;2.83;;;11.90;99.90;;;;;;5034346;28;20204;-42
2022/06/15 03:40:44;;;;;;;4.93;2.90;;;11.90;99.90;;;;;;5034122;28;20177;-39
2022/06/15 03:43:10;;;;;;;5.97;2.63;;;11.90;99.90;;;;;;5034499;28;20255;-40
2022/06/15 03:45:38;;;;;;;6.13;3.03;;;11.90;99.90;;;;;;5034458;28;20255;-40
2022/06/15 03:48:04;;;;;;;6.87;2.93;;;11.90;99.90;;;;;;5033390;28;20546;-40
2022/06/15 03:50:31;;;;;;;6.60;2.90;;;11.80;99.90;;;;;;5016534;28;20230;-38
2022/06/15 03:52:57;;;;;;;6.30;3.13;;;11.80;99.90;;;;;;5033608;28;20220;-40
2022/06/15 03:55:23;;;;;;;7.53;2.90;;;11.80;99.90;;;;;;5033804;28;20192;-39
2022/06/15 03:57:49;;;;;;;6.93;2.70;;;11.90;99.90;;;;;;5033791;28;20590;-40
2022/06/15 04:00:17;;;;;;;9.40;3.43;;;11.90;99.90;;;;;;5033833;28;20552;-40
2022/06/15 04:02:43;;;;;;;5.00;2.53;;;11.90;99.90;;;;;;5015865;28;20208;-39
2022/06/15 04:05:19;;;;;;;7.97;2.97;;;11.80;99.90;;;;;;5018737;28;20176;-44
2022/06/15 04:10:30;;;;;;;3.17;2.57;;;11.80;99.90;;;;;;5036069;28;20168;-43
2022/06/15 04:12:56;;;;;;;9.13;2.90;;;11.80;99.90;;;;;;5035493;28;20177;-45
2022/06/15 04:15:21;;;;;;;6.53;2.83;;;11.90;99.90;;;;;;5018229;28;20183;-43
2022/06/15 04:17:47;;;;;;;7.57;3.40;;;11.90;99.90;;;;;;5037327;28;20215;-45
2022/06/15 04:20:36;;;;;;;8.60;3.27;;;11.90;99.90;;;;;;5037576;28;20644;-45
2022/06/15 04:23:07;;;;;;;5.00;2.80;;;11.90;99.90;;;;;;5036599;28;20194;-46
2022/06/15 04:25:36;;;;;;;4.60;3.20;;;12.00;99.90;;;;;;5038457;28;20222;-44
2022/06/15 04:28:04;;;;;;;7.03;3.20;;;12.00;99.90;;;;;;5020158;28;20231;-45
2022/06/15 04:30:31;;;;;;;6.53;3.00;;;12.10;99.90;;;;;;5038079;28;20238;-46
2022/06/15 04:32:56;;;;;;;3.90;3.00;;;12.10;99.90;;;;;;5019144;28;20184;-43
2022/06/15 04:35:22;;;;;;;6.93;2.93;;;12.20;99.90;;;;;;5033132;28;20686;-39
2022/06/15 04:37:48;;;;;;;7.50;3.67;;;12.20;99.90;;;;;;5015869;28;20223;-39
2022/06/15 04:40:14;;;;;;;4.53;2.73;;;12.30;99.90;;;;;;5033421;28;20185;-39
2022/06/15 04:42:41;;;;;;;6.07;2.97;;;12.30;99.90;;;;;;5015429;28;20173;-42
2022/06/15 04:45:08;;;;;;;5.67;3.10;;;12.40;99.90;;;;;;5033114;28;20187;-43
2022/06/15 04:47:34;;;;;;;4.47;3.33;;;12.50;99.90;;;;;;5033355;28;20213;-41
2022/06/15 04:49:59;;;;;;;5.63;3.40;;;12.50;99.90;;;;;;5033012;28;20299;-41
2022/06/15 04:52:25;;;;;;;8.53;3.63;;;12.60;99.90;;;;;;5033418;28;20173;-39
2022/06/15 04:54:50;;;;;;;4.40;3.23;;;12.60;99.90;;;;;;5032960;28;20640;-42
2022/06/15 04:57:16;;;;;;;7.77;3.37;;;12.60;99.90;;;;;;5034250;28;20295;-40
2022/06/15 04:59:42;;;;;;;8.70;3.57;;;12.70;99.90;;;;;;5033260;28;20204;-39
2022/06/15 05:02:10;;;;;;;6.77;3.53;;;12.80;99.90;;;;;;5033432;28;20196;-42
2022/06/15 05:04:35;;;;;;;8.03;3.37;;;12.80;99.90;;;;;;5037950;28;20590;-45
2022/06/15 05:07:01;;;;;;;10.90;3.87;;;12.90;99.90;;;;;;5038375;28;20184;-45
2022/06/15 05:09:27;;;;;;;8.30;3.70;;;13.00;99.90;;;;;;5037280;28;20212;-46
2022/06/15 05:11:52;;;;;;;10.00;3.73;;;13.10;99.90;;;;;;5036460;28;20211;-45
2022/06/15 05:14:18;;;;;;;7.07;4.20;;;13.10;99.90;;;;;;5038219;28;20536;-44
2022/06/15 05:16:44;;;;;;;5.57;3.60;;;13.20;99.90;;;;;;5020503;28;20184;-46
2022/06/15 05:19:10;;;;;;;10.30;3.87;;;13.20;99.90;;;;;;5019175;28;20235;-45
2022/06/15 05:21:38;;;;;;;12.07;3.93;;;13.30;99.90;;;;;;5019634;28;20180;-46
2022/06/15 05:24:04;;;;;;;7.47;4.13;;;13.30;99.90;;;;;;5037564;28;20206;-46
2022/06/15 05:26:30;;;;;;;9.47;3.70;;;13.40;99.90;;;;;;5041729;28;20173;-46
2022/06/15 05:28:55;;;;;;;14.43;4.30;;;13.50;99.90;;;;;;5040815;28;20268;-45
2022/06/15 05:31:22;;;;;;;13.43;4.53;;;13.60;99.90;;;;;;5040473;28;20173;-44
2022/06/15 05:33:53;;;;;;;24.77;4.90;;;13.60;99.90;;;;;;5022964;28;20181;-46
2022/06/15 05:36:27;;;;;;;17.67;4.03;;;13.70;99.90;;;;;;5022545;28;20601;-43
2022/06/15 05:38:54;;;;;;;22.80;4.63;;;13.80;99.90;;;;;;5040055;28;20274;-44
2022/06/15 05:41:20;;;;;;;15.27;4.30;;;13.90;99.90;;;;;;5022792;28;20173;-44
2022/06/15 05:46:33;;;;;;;18.00;4.23;;;14.10;99.90;;;;;;5040797;28;20180;-45
2022/06/15 05:49:00;;;;;;;20.47;4.10;;;14.20;99.90;;;;;;5007096;28;20208;-43
2022/06/15 05:51:27;;;;;;;17.33;4.13;;;14.20;99.90;;;;;;5040487;28;20655;-45
2022/06/15 05:53:52;;;;;;;17.50;4.40;;;14.40;99.90;;;;;;5020495;28;20181;-44
2022/06/15 05:56:18;;;;;;;12.13;4.47;;;14.40;99.90;;;;;;5021284;28;20181;-43
2022/06/15 05:58:44;;;;;;;14.70;4.47;;;14.50;99.90;;;;;;5021866;28;20303;-44
2022/06/15 06:01:22;;;;;;;20.23;4.53;;;14.60;99.90;;;;;;5040716;28;20557;-45
2022/06/15 06:03:47;;;;;;;14.50;4.10;;;14.80;99.90;;;;;;5040733;28;20194;-42
2022/06/15 06:06:13;;;;;;;13.87;4.20;;;14.90;99.90;;;;;;5036088;28;20261;-40
2022/06/15 06:08:39;;;;;;;13.33;3.70;;;15.10;99.90;;;;;;5036221;28;20197;-39
2022/06/15 06:11:04;;;;;;;11.60;4.00;;;15.20;99.90;;;;;;5036284;28;20185;-39
2022/06/15 06:13:30;;;;;;;13.70;3.73;;;15.40;99.90;;;;;;5035787;28;20710;-39
2022/06/15 06:15:56;;;;;;;14.93;4.10;;;15.60;99.90;;;;;;5036089;28;20683;-42
2022/06/15 06:18:25;;;;;;;10.80;3.93;;;15.80;99.90;;;;;;5035476;28;20291;-39
2022/06/15 06:20:52;;;;;;;11.93;3.20;;;15.80;99.90;;;;;;5035768;28;20204;-40
2022/06/15 06:23:18;;;;;;;15.03;3.87;;;16.00;99.90;;;;;;5017811;28;20698;-39
2022/06/15 06:25:47;;;;;;;11.83;4.17;;;16.20;99.90;;;;;;5017762;28;20187;-41
2022/06/15 06:28:38;;;;;;;9.70;3.90;;;16.30;99.90;;;;;;5036393;28;20200;-40
2022/06/15 06:31:05;;;;;;;11.10;3.87;;;16.60;99.90;;;;;;5036272;28;20184;-40
2022/06/15 06:33:35;;;;;;;9.00;3.53;;;16.80;99.90;;;;;;5020376;28;20683;-45
2022/06/15 06:36:06;;;;;;;15.17;3.80;;;17.00;99.90;;;;;;5020633;28;20219;-45
2022/06/15 06:38:32;;;;;;;9.77;3.90;;;17.10;99.90;;;;;;5046641;28;20208;-44
2022/06/15 06:40:59;;;;;;;29.60;4.07;;;17.20;99.90;;;;;;5036885;28;20307;-45
2022/06/15 06:43:26;;;;;;;10.90;3.83;;;17.20;99.90;;;;;;5039009;28;20181;-44
2022/06/15 06:45:52;;;;;;;15.80;4.77;;;17.40;99.90;;;;;;5020402;28;20177;-47
2022/06/15 06:48:17;;;;;;;18.07;4.50;;;17.50;99.90;;;;;;5037428;28;20233;-44
2022/06/15 06:50:44;;;;;;;14.00;4.03;;;17.60;99.90;;;;;;5037232;28;20255;-47
2022/06/15 06:53:12;;;;;;;9.47;3.47;;;17.70;99.90;;;;;;5020213;28;20644;-45
2022/06/15 06:55:38;;;;;;;11.97;3.77;;;18.00;99.90;;;;;;5037723;28;20184;-46
2022/06/15 06:58:04;;;;;;;14.17;3.77;;;18.10;99.90;;;;;;5036713;28;20212;-45
2022/06/15 07:00:32;;;;;;;17.60;4.07;;;18.10;99.90;;;;;;5036749;28;20279;-45
2022/06/15 07:03:00;;;;;;;10.00;3.73;;;18.10;99.90;;;;;;5035293;28;20189;-45
2022/06/15 07:05:26;;;;;;;12.93;3.80;;;18.20;99.90;;;;;;4984740;28;20238;-39
2022/06/15 07:07:52;;;;;;;8.90;3.80;;;18.40;99.90;;;;;;5034531;28;20594;-41
2022/06/15 07:10:18;;;;;;;8.27;3.90;;;18.50;99.90;;;;;;5034264;28;20169;-41
2022/06/15 07:12:44;;;;;;;13.73;3.67;;;18.60;99.90;;;;;;5034152;28;20181;-40
2022/06/15 07:15:14;;;;;;;14.90;4.23;;;18.90;99.90;;;;;;5034464;28;20177;-39
2022/06/15 07:17:41;;;;;;;12.53;3.80;;;19.00;99.90;;;;;;5034455;28;20200;-41
2022/06/15 07:20:08;;;;;;;18.80;4.37;;;19.10;99.90;;;;;;5034116;28;20216;-40
2022/06/15 07:22:34;;;;;;;10.17;3.70;;;19.10;99.90;;;;;;5034681;28;20180;-41
2022/06/15 07:25:00;;;;;;;16.00;4.10;;;19.20;99.90;;;;;;5034337;28;20188;-41
2022/06/15 07:27:26;;;;;;;19.20;4.20;;;19.30;99.90;;;;;;5036162;28;20648;-45
2022/06/15 07:29:55;;;;;;;9.73;3.80;;;19.40;99.90;;;;;;5018056;28;20201;-43
2022/06/15 07:32:22;;;;;;;6.23;3.57;;;19.50;99.90;;;;;;5017097;28;20187;-40
2022/06/15 07:34:48;;;;;;;12.67;4.43;;;19.60;99.90;;;;;;5034955;28;20184;-40
2022/06/15 07:37:14;;;;;;;9.30;3.90;;;19.50;99.90;;;;;;5017595;28;20243;-43
2022/06/15 07:39:41;;;;;;;8.67;3.83;;;19.50;99.90;;;;;;5016642;28;20688;-42
2022/06/15 07:42:08;;;;;;;8.63;2.97;;;19.50;99.90;;;;;;5034382;28;20386;-41
2022/06/15 07:44:37;;;;;;;7.83;3.70;;;19.60;99.90;;;;;;5034555;28;20256;-41
2022/06/15 07:49:57;;;;;;;8.53;3.50;;;19.70;99.90;;;;;;5034104;28;20266;-39
2022/06/15 07:52:34;;;;;;;12.77;3.93;;;19.90;99.90;;;;;;5034108;28;20181;-40
2022/06/15 07:55:01;;;;;;;10.27;3.40;;;20.20;99.90;;;;;;5033951;28;20176;-40
2022/06/15 07:57:27;;;;;;;7.80;3.73;;;20.40;99.90;;;;;;5033969;28;20208;-42
2022/06/15 07:59:53;;;;;;;8.67;3.40;;;20.50;99.90;;;;;;5016168;28;20552;-41
2022/06/15 08:02:20;;;;;;;9.30;3.17;;;20.40;99.90;;;;;;5033779;28;20255;-42
2022/06/15 08:04:46;;;;;;;8.97;3.10;;;20.40;99.90;;;;;;5034257;28;20165;-41
2022/06/15 08:07:13;;;;;;;10.00;2.97;;;20.60;99.90;;;;;;5033889;28;20180;-41
2022/06/15 08:09:39;;;;;;;8.40;3.30;;;20.60;99.90;;;;;;5036279;28;20208;-42
2022/06/15 08:12:11;;;;;;;4.43;2.40;;;20.60;99.90;;;;;;5016327;28;20177;-39
2022/06/15 08:14:40;;;;;;;11.33;3.17;;;20.80;99.90;;;;;;5017654;28;20181;-45
2022/06/15 08:17:10;;;;;;;8.03;2.87;;;20.90;99.90;;;;;;5037549;28;20208;-47
2022/06/15 08:19:39;;;;;;;6.17;2.90;;;21.10;99.90;;;;;;5020639;28;20201;-44
2022/06/15 08:22:07;;;;;;;5.90;2.60;;;21.20;99.90;;;;;;5020608;28;20177;-47
2022/06/15 08:24:33;;;;;;;7.93;2.77;;;21.20;99.90;;;;;;5036428;28;20610;-46
2022/06/15 08:27:00;;;;;;;9.60;3.20;;;21.30;99.90;;;;;;5018617;28;20169;-47
2022/06/15 08:29:26;;;;;;;9.27;3.27;;;21.40;99.90;;;;;;5017726;28;20215;-46
2022/06/15 08:31:56;;;;;;;6.77;2.63;;;21.50;99.90;;;;;;5036190;28;20173;-46
2022/06/15 08:34:23;;;;;;;4.60;2.67;;;21.80;99.90;;;;;;5020173;28;20173;-47
2022/06/15 08:36:49;;;;;;;4.33;2.40;;;21.90;99.90;;;;;;5019753;28;20181;-46
2022/06/15 08:39:15;;;;;;;5.20;2.80;;;21.90;99.90;;;;;;5037536;28;20207;-48
2022/06/15 08:41:55;;;;;;;5.17;2.50;;;22.00;99.90;;;;;;5037067;28;20235;-46
2022/06/15 08:44:45;;;;;;;4.80;2.80;;;22.00;99.90;;;;;;5019302;28;20185;-46
2022/06/15 08:47:36;;;;;;;6.83;2.93;;;22.10;99.90;;;;;;5017575;28;20173;-47
2022/06/15 08:50:39;;;;;;;6.00;2.60;;;22.50;99.90;;;;;;5035407;28;20220;-47
2022/06/15 08:53:10;;;;;;;9.20;3.07;;;22.70;99.90;;;;;;5035011;28;20631;-46
2022/06/15 08:55:41;;;;;;;6.37;3.03;;;22.70;99.90;;;;;;5034965;28;20177;-47
2022/06/15 08:58:23;;;;;;;7.73;2.63;;;22.70;99.90;;;;;;5033802;28;20209;-47
2022/06/15 09:00:54;;;;;;;4.60;2.37;;;22.80;99.90;;;;;;5037836;28;20516;-46
2022/06/15 09:03:45;;;;;;;5.83;2.33;;;22.90;99.90;;;;;;5038324;28;20249;-46
2022/06/15 09:06:38;;;;;;;5.23;2.90;;;22.80;99.90;;;;;;5037908;28;20693;-45
2022/06/15 09:09:23;;;;;;;8.57;2.53;;;22.90;99.90;;;;;;5020496;28;20204;-46
2022/06/15 09:15:42;;;;;;;7.70;2.60;;;22.80;99.90;;;;;;5037487;28;20246;-45
2022/06/15 09:18:28;;;;;;;7.00;2.80;;;22.80;99.90;;;;;;5037253;28;20303;-42
2022/06/15 09:21:05;;;;;;;5.17;2.47;;;22.80;99.90;;;;;;5024578;28;20193;-42
2022/06/15 09:23:40;;;;;;;4.87;2.47;;;22.90;99.90;;;;;;5039136;28;20188;-43
2022/06/15 09:26:11;;;;;;;7.50;2.40;;;23.00;99.90;;;;;;5022164;28;20176;-43
2022/06/15 09:28:50;;;;;;;4.80;2.57;;;23.00;99.90;;;;;;5048301;28;20223;-46
2022/06/15 09:31:25;;;;;;;5.87;2.40;;;23.10;99.90;;;;;;5048182;28;20507;-47
2022/06/15 09:34:03;;;;;;;6.50;2.50;;;23.30;99.90;;;;;;5044221;28;20172;-46
2022/06/15 09:36:51;;;;;;;4.93;2.67;;;23.30;99.90;;;;;;5026834;28;20688;-42
2022/06/15 09:39:17;;;;;;;13.37;2.80;;;23.40;99.90;;;;;;5042635;28;20283;-43
2022/06/15 09:42:20;;;;;;;11.57;3.10;;;23.50;99.90;;;;;;5043916;28;20201;-45
2022/06/15 09:45:07;;;;;;;7.10;2.83;;;23.60;99.90;;;;;;5021250;28;20191;-41
2022/06/15 09:47:59;;;;;;;5.03;2.77;;;23.90;99.90;;;;;;5036515;28;20223;-42
2022/06/15 09:50:30;;;;;;;8.03;2.60;;;23.90;99.90;;;;;;5036371;28;20193;-42
2022/06/15 09:53:16;;;;;;;4.07;2.23;;;23.90;99.90;;;;;;5018553;28;20183;-42
2022/06/15 09:55:51;;;;;;;6.00;2.30;;;24.00;99.90;;;;;;5018422;28;20215;-43
2022/06/15 09:58:19;;;;;;;6.93;2.37;;;24.00;99.90;;;;;;5035572;28;20711;-41
2022/06/15 10:00:47;;;;;;;5.93;2.37;;;24.10;99.90;;;;;;5036157;28;20183;-39
2022/06/15 10:03:32;;;;;;;11.67;3.00;;;24.20;99.90;;;;;;5018305;28;20177;-43
2022/06/15 10:06:15;;;;;;;6.13;2.30;;;24.30;99.90;;;;;;5035701;28;20231;-39
2022/06/15 10:08:41;;;;;;;7.23;2.63;;;24.40;99.90;;;;;;5001538;28;20738;-44
2022/06/15 10:11:21;;;;;;;5.33;2.50;;;24.50;99.90;;;;;;5035131;28;20189;-43
2022/06/15 10:13:47;;;;;;;7.80;2.40;;;24.60;99.90;;;;;;5035639;28;20171;-41
2022/06/15 10:16:21;;;;;;;6.27;2.03;;;24.60;99.90;;;;;;5035539;28;20185;-44
2022/06/15 10:18:51;;;;;;;5.47;2.53;;;24.50;99.90;;;;;;5017808;28;20235;-40
2022/06/15 10:21:23;;;;;;;4.23;2.00;;;24.60;99.90;;;;;;5035734;28;20196;-42
2022/06/15 10:23:56;;;;;;;9.37;2.17;;;24.70;99.90;;;;;;5017528;28;20629;-42
2022/06/15 10:26:27;;;;;;;6.57;2.30;;;24.80;99.90;;;;;;5035137;28;20181;-42
2022/06/15 10:28:54;;;;;;;5.15;2.17;;;24.80;99.90;;;;;;5017547;28;20201;-44
2022/06/15 10:31:32;;;;;;;5.25;1.60;;;24.70;99.90;;;;;;5017435;28;20199;-45
2022/06/15 10:33:58;;;;;;;5.45;2.17;;;24.80;99.90;;;;;;5035460;28;20207;-42
2022/06/15 10:36:31;;;;;;;6.93;2.30;;;24.90;99.90;;;;;;5035360;28;20181;-45
2022/06/15 10:39:12;;;;;;;2.95;2.00;;;24.90;99.90;;;;;;5035126;28;20211;-45
2022/06/15 10:41:46;;;;;;;7.80;2.00;;;25.00;99.90;;;;;;5035409;28;20173;-44
2022/06/15 10:44:31;;;;;;;4.93;1.77;;;25.00;99.90;;;;;;5035225;28;20157;-45
2022/06/15 10:47:05;;;;;;;3.38;1.85;;;25.20;99.90;;;;;;5035320;28;20165;-47
2022/06/15 10:49:42;;;;;;;5.25;1.60;;;25.30;99.90;;;;;;5035841;28;20233;-46
2022/06/15 10:52:37;;;;;;;6.00;2.20;;;25.30;99.90;;;;;;5035251;28;20173;-48
2022/06/15 11:04:14;;;;;;;5.63;1.90;;;25.80;99.90;;;;;;5020689;28;20184;-46
2022/06/15 11:06:45;;;;;;;6.53;1.95;;;26.00;99.90;;;;;;5017597;28;20211;-45
2022/06/15 11:09:23;;;;;;;6.55;1.60;;;26.00;99.00;;;;;;5016835;28;20250;-45
2022/06/15 11:11:51;;;;;;;5.40;1.83;;;26.10;99.00;;;;;;5034844;28;20176;-45
2022/06/15 11:14:25;;;;;;;9.68;2.17;;;26.30;99.90;;;;;;5034749;28;20179;-46
2022/06/15 11:19:51;;;;;;;5.47;2.30;;;26.40;98.70;;;;;;5034598;28;20251;-46
2022/06/15 11:22:20;;;;;;;4.47;1.83;;;26.50;99.60;;;;;;5034265;28;20285;-45
2022/06/15 11:25:11;;;;;;;4.15;1.65;;;26.50;99.00;;;;;;5034417;28;20532;-45
2022/06/15 11:28:00;;;;;;;3.70;1.60;;;26.50;99.90;;;;;;5034718;28;20582;-45
2022/06/15 11:30:28;;;;;;;3.05;1.55;;;26.70;99.60;;;;;;5034430;28;20157;-45
2022/06/15 11:33:07;;;;;;;5.20;1.60;;;26.80;98.70;;;;;;5034111;28;20196;-45
2022/06/15 11:36:05;;;;;;;3.80;1.70;;;26.80;97.40;;;;;;5035114;28;20566;-45
2022/06/15 11:39:00;;;;;;;2.55;1.40;;;26.90;99.60;;;;;;5029598;28;20224;-45
2022/06/15 11:41:29;;;;;;;7.15;2.10;;;27.20;99.90;;;;;;5034439;28;20150;-46
2022/06/15 11:43:57;;;;;;;4.65;1.75;;;27.20;98.70;;;;;;5016134;28;20181;-46
2022/06/15 11:46:31;;;;;;;2.85;1.60;;;27.30;98.60;;;;;;5033901;28;20633;-46
2022/06/15 11:49:21;;;;;;;8.93;1.95;;;27.30;96.80;;;;;;5034649;28;20212;-45
2022/06/15 11:52:14;;;;;;;4.35;1.77;;;27.30;97.60;;;;;;5033681;28;20161;-46
2022/06/15 11:55:13;;;;;;;3.60;1.88;;;27.50;97.80;;;;;;5016022;28;20196;-45
2022/06/15 11:58:21;;;;;;;4.32;1.77;;;27.40;98.10;;;;;;5033519;28;20283;-47
2022/06/15 12:01:05;;;;;;;4.13;1.92;;;27.50;98.30;;;;;;5023253;28;20193;-46
2022/06/15 12:04:07;;;;;;;3.67;1.70;;;27.70;95.30;;;;;;5033647;28;20581;-46
2022/06/15 12:07:02;;;;;;;4.32;1.73;;;27.50;96.60;;;;;;4937353;29;20175;-47
2022/06/15 12:10:00;;;;;;;4.18;1.67;;;27.60;97.90;;;;;;5015190;28;20776;-46
2022/06/15 12:12:48;;;;;;;2.13;1.65;;;27.60;95.40;;;;;;5033718;28;20555;-46
2022/06/15 12:15:34;;;;;;;5.43;2.10;;;27.50;96.40;;;;;;5033628;28;20546;-45
2022/06/15 12:18:18;;;;;;;3.90;1.83;;;27.60;95.00;;;;;;5033481;28;20294;-46
2022/06/15 12:20:51;;;;;;;4.65;1.67;;;27.60;95.10;;;;;;5033525;28;20180;-45
2022/06/15 12:23:56;;;;;;;2.35;1.63;;;27.50;97.10;;;;;;5033304;28;20591;-45
2022/06/15 12:26:44;;;;;;;7.05;1.88;;;27.60;95.50;;;;;;5033396;28;20168;-47
2022/06/15 12:29:57;;;;;;;4.55;1.90;;;27.80;97.40;;;;;;5033297;28;20613;-45
2022/06/15 12:35:14;;;;;;;2.53;1.60;;;28.50;99.90;;;;;;5041931;28;20211;-46
2022/06/15 12:37:58;;;;;;;5.55;2.38;;;28.70;96.80;;;;;;5041769;28;20270;-46
2022/06/15 12:40:28;;;;;;;5.05;1.67;;;28.90;95.80;;;;;;5042203;28;20157;-46
2022/06/15 12:43:24;;;;;;;5.93;1.70;;;28.90;94.70;;;;;;5042183;28;20184;-46
2022/06/15 12:45:55;;;;;;;2.20;1.73;;;28.60;95.20;;;;;;5024119;28;20204;-46
2022/06/15 12:48:35;;;;;;;4.72;1.67;;;28.50;94.70;;;;;;5042589;28;20208;-46
2022/06/15 12:51:10;;;;;;;7.72;2.50;;;28.50;94.30;;;;;;5041882;28;20574;-46
2022/06/15 12:53:45;;;;;;;4.70;1.95;;;28.40;95.20;;;;;;5041550;28;20632;-46
2022/06/15 12:56:16;;;;;;;5.00;1.90;;;28.30;95.80;;;;;;5041573;28;20164;-46
2022/06/15 12:59:17;;;;;;;5.45;1.85;;;28.30;94.70;;;;;;5023521;28;20263;-45
2022/06/15 13:01:46;;;;;;;2.85;1.60;;;28.40;95.60;;;;;;5041448;28;20168;-47
2022/06/15 13:04:12;;;;;;;4.47;1.98;;;28.50;94.30;;;;;;5037504;28;20183;-44
2022/06/15 13:06:41;;;;;;;3.05;1.50;;;28.50;95.30;;;;;;5037065;28;20263;-43
2022/06/15 13:09:20;;;;;;;3.40;1.60;;;28.60;96.40;;;;;;5036639;28;20196;-42
2022/06/15 13:12:04;;;;;;;3.17;1.40;;;28.80;93.40;;;;;;5037036;28;20184;-44
2022/06/15 13:14:56;;;;;;;2.80;1.60;;;28.90;96.00;;;;;;5036566;28;20541;-43
2022/06/15 13:17:25;;;;;;;7.18;2.33;;;29.00;93.70;;;;;;5036839;28;20203;-43
2022/06/15 13:20:05;;;;;;;5.43;1.52;;;29.10;95.30;;;;;;5036862;28;20204;-44
2022/06/15 13:22:37;;;;;;;5.53;1.58;;;29.30;97.40;;;;;;5036675;28;20177;-44
2022/06/15 13:25:03;;;;;;;4.30;1.90;;;29.40;94.60;;;;;;5036443;28;20643;-42
2022/06/15 13:27:33;;;;;;;4.15;1.60;;;29.40;91.80;;;;;;5036549;28;20177;-41
2022/06/15 13:30:17;;;;;;;3.30;1.63;;;29.40;95.10;;;;;;5018558;28;20200;-43
2022/06/15 13:33:03;;;;;;;4.20;1.55;;;29.40;90.20;;;;;;5036578;28;20195;-41
2022/06/15 13:35:41;;;;;;;2.00;1.40;;;29.20;91.40;;;;;;5018424;28;20264;-44
2022/06/15 13:38:27;;;;;;;4.40;1.67;;;29.10;90.70;;;;;;5018382;28;20251;-43
2022/06/15 13:40:58;;;;;;;5.40;1.65;;;29.30;93.10;;;;;;5018314;28;20722;-43
2022/06/15 13:43:51;;;;;;;4.50;1.92;;;29.60;95.60;;;;;;5036157;28;20180;-42